createdAt,value
2019-02-19T00:02:23.612Z,38.90
2019-02-19T00:05:28.503Z,39.50
2019-02-19T00:08:33.135Z,39.03
2019-02-19T00:11:37.528Z,38.80
2019-02-19T00:14:42.202Z,38.53
2019-02-19T00:17:47.015Z,38.63
2019-02-19T00:20:51.963Z,37.73
2019-02-19T00:23:56.816Z,38.87
2019-02-19T00:27:01.588Z,39.43
2019-02-19T00:30:06.774Z,40.70
2019-02-19T00:33:11.572Z,40.03
2019-02-19T00:36:16.508Z,42.13
2019-02-19T00:39:21.339Z,41.10
2019-02-19T00:42:25.960Z,43.67
2019-02-19T00:45:30.680Z,44.37
2019-02-19T00:48:35.638Z,44.50
2019-02-19T00:51:40.548Z,45.20
2019-02-19T00:54:45.496Z,45.73
2019-02-19T00:57:50.229Z,48.37
2019-02-19T01:00:55.048Z,47.77
2019-02-19T01:04:00.763Z,50.77
2019-02-19T01:07:06.408Z,50.27
2019-02-19T01:10:11.187Z,52.07
2019-02-19T01:13:17.013Z,51.00
2019-02-19T01:16:21.753Z,52.90
2019-02-19T01:19:26.605Z,54.20
2019-02-19T01:22:31.521Z,54.43
2019-02-19T01:25:36.453Z,54.83
2019-02-19T01:28:45.033Z,53.80
2019-02-19T01:31:49.904Z,56.13
2019-02-19T01:34:54.749Z,58.60
2019-02-19T01:37:59.574Z,59.57
2019-02-19T01:41:04.503Z,58.23
2019-02-19T01:44:09.440Z,58.57
2019-02-19T01:47:14.264Z,60.17
2019-02-19T01:50:19.073Z,58.63
2019-02-19T01:53:23.826Z,60.50
2019-02-19T01:56:28.754Z,60.40
2019-02-19T01:59:33.574Z,59.60
2019-02-19T02:02:38.405Z,59.57
2019-02-19T02:05:43.221Z,62.70
2019-02-19T02:08:47.973Z,63.87
2019-02-19T02:11:52.895Z,61.00
2019-02-19T02:14:57.641Z,59.80
2019-02-19T02:18:02.452Z,60.63
2019-02-19T02:21:07.278Z,62.13
2019-02-19T02:24:11.933Z,60.63
2019-02-19T02:27:16.752Z,60.47
2019-02-19T02:30:21.399Z,61.83
2019-02-19T02:33:27.234Z,63.20
2019-02-19T02:36:31.671Z,63.40
2019-02-19T02:39:36.381Z,62.20
2019-02-19T02:42:41.219Z,61.83
2019-02-19T02:45:52.937Z,62.63
2019-02-19T02:48:52.507Z,63.60
2019-02-19T02:51:57.230Z,63.57
2019-02-19T02:55:01.747Z,64.07
2019-02-19T02:58:06.467Z,64.53
2019-02-19T03:01:11.215Z,62.67
2019-02-19T03:04:15.943Z,62.50
2019-02-19T03:07:39.176Z,59.87
2019-02-19T03:10:43.728Z,60.80
2019-02-19T03:13:48.660Z,60.17
2019-02-19T03:16:53.471Z,59.13
2019-02-19T03:19:58.316Z,59.50
2019-02-19T03:23:03.252Z,59.73
2019-02-19T03:26:07.973Z,59.03
2019-02-19T03:29:12.903Z,57.13
2019-02-19T03:32:17.729Z,57.07
2019-02-19T03:35:22.358Z,57.20
2019-02-19T03:38:27.185Z,56.17
2019-02-19T03:41:32.034Z,54.80
2019-02-19T03:44:36.939Z,53.20
2019-02-19T03:47:41.699Z,54.13
2019-02-19T03:50:46.525Z,52.40
2019-02-19T03:53:51.339Z,52.63
2019-02-19T03:56:56.190Z,51.00
2019-02-19T04:00:01.016Z,49.63
2019-02-19T04:03:05.771Z,50.33
2019-02-19T04:06:10.454Z,48.20
2019-02-19T04:09:15.218Z,49.67
2019-02-19T04:12:20.007Z,46.87
2019-02-19T04:15:24.860Z,47.97
2019-02-19T04:18:33.426Z,44.70
2019-02-19T04:21:37.900Z,44.10
2019-02-19T04:24:44.455Z,43.63
2019-02-19T04:27:49.192Z,37.70
2019-02-19T04:30:54.900Z,33.00
2019-02-19T04:33:59.573Z,38.17
2019-02-19T04:37:05.226Z,36.30
2019-02-19T04:40:09.943Z,35.97
2019-02-19T04:43:14.876Z,35.67
2019-02-19T04:46:19.591Z,35.23
2019-02-19T04:49:24.456Z,34.13
2019-02-19T04:52:29.260Z,39.93
2019-02-19T04:55:33.984Z,34.40
2019-02-19T04:58:38.714Z,31.73
2019-02-19T05:01:43.557Z,31.17
2019-02-19T05:04:48.374Z,41.60
2019-02-19T05:07:53.113Z,37.67
2019-02-19T05:10:58.035Z,34.80
2019-02-19T05:14:02.871Z,32.77
2019-02-19T05:17:07.639Z,34.60
2019-02-19T05:20:12.428Z,32.47
2019-02-19T05:23:17.265Z,32.90
2019-02-19T05:26:21.985Z,32.17
2019-02-19T05:29:26.835Z,32.10
2019-02-19T05:32:33.798Z,29.63
2019-02-19T05:35:38.539Z,29.50
2019-02-19T05:38:43.080Z,30.83
2019-02-19T05:41:47.850Z,30.33
2019-02-19T05:44:52.548Z,29.40
2019-02-19T05:47:57.225Z,29.70
2019-02-19T05:51:02.071Z,27.90
2019-02-19T05:54:06.801Z,29.70
2019-02-19T05:57:15.064Z,29.40
2019-02-19T06:00:19.921Z,28.50
2019-02-19T06:03:24.656Z,29.67
2019-02-19T06:06:29.488Z,28.80
2019-02-19T06:09:34.438Z,28.63
2019-02-19T06:12:39.040Z,28.07
2019-02-19T06:15:44.186Z,27.50
2019-02-19T06:18:49.045Z,28.93
2019-02-19T06:21:55.321Z,27.70
2019-02-19T06:25:00.017Z,28.23
2019-02-19T06:28:04.843Z,28.23
2019-02-19T06:31:09.780Z,28.50
2019-02-19T06:34:14.503Z,27.23
2019-02-19T06:37:19.325Z,27.40
2019-02-19T06:40:28.108Z,26.80
2019-02-19T06:43:32.766Z,27.37
2019-02-19T06:46:37.449Z,28.03
2019-02-19T06:49:42.102Z,26.47
2019-02-19T06:52:46.975Z,27.00
2019-02-19T06:55:51.779Z,27.10
2019-02-19T06:58:56.729Z,25.00
2019-02-19T07:02:20.128Z,26.50
2019-02-19T07:05:25.637Z,25.30
2019-02-19T07:08:30.592Z,25.07
2019-02-19T07:11:35.292Z,24.20
2019-02-19T07:14:40.153Z,24.40
2019-02-19T07:17:44.758Z,26.47
2019-02-19T07:20:49.580Z,24.60
2019-02-19T07:24:03.888Z,24.77
2019-02-19T07:27:00.988Z,22.13
2019-02-19T07:30:06.205Z,25.03
2019-02-19T07:33:10.967Z,24.30
2019-02-19T07:36:15.768Z,23.23
2019-02-19T07:39:20.510Z,23.40
2019-02-19T07:42:25.244Z,23.40
2019-02-19T07:45:31.051Z,24.20
2019-02-19T07:48:35.718Z,23.40
2019-02-19T07:51:40.330Z,21.83
2019-02-19T07:54:45.272Z,24.20
2019-02-19T07:57:50.089Z,23.40
2019-02-19T08:00:56.630Z,27.43
2019-02-19T08:04:01.501Z,53.40
2019-02-19T08:07:06.234Z,56.63
2019-02-19T08:10:10.948Z,57.40
2019-02-19T08:13:15.667Z,61.43
2019-02-19T08:16:20.533Z,64.17
2019-02-19T08:19:25.236Z,63.60
2019-02-19T08:22:31.087Z,57.17
2019-02-19T08:25:35.935Z,58.00
2019-02-19T08:28:40.874Z,60.00
2019-02-19T08:31:45.888Z,65.40
2019-02-19T08:34:50.837Z,68.63
2019-02-19T08:37:55.454Z,62.50
2019-02-19T08:41:00.079Z,64.90
2019-02-19T08:44:04.902Z,59.37
2019-02-19T08:47:09.752Z,60.77
2019-02-19T08:50:14.682Z,57.57
2019-02-19T08:53:19.193Z,58.17
2019-02-19T08:56:23.923Z,57.23
2019-02-19T08:59:28.731Z,56.40
2019-02-19T09:02:33.487Z,54.77
2019-02-19T09:05:38.217Z,55.53
2019-02-19T09:08:42.943Z,56.37
2019-02-19T09:11:47.813Z,55.70
2019-02-19T09:14:52.601Z,53.00
2019-02-19T09:17:57.535Z,52.73
2019-02-19T09:21:02.257Z,52.97
2019-02-19T09:24:09.700Z,51.87
2019-02-19T09:27:13.561Z,51.53
2019-02-19T09:30:18.306Z,50.43
2019-02-19T09:33:23.167Z,50.57
2019-02-19T09:36:27.843Z,50.60
2019-02-19T09:42:48.161Z,50.57
2019-02-19T09:45:54.395Z,50.53
2019-02-19T09:48:59.195Z,48.27
2019-02-19T09:52:03.985Z,50.23
2019-02-19T09:55:08.938Z,48.60
2019-02-19T09:58:13.719Z,46.93
2019-02-19T10:01:18.470Z,47.77
2019-02-19T10:04:23.186Z,47.20
2019-02-19T10:07:28.042Z,46.83
2019-02-19T10:10:32.740Z,46.17
2019-02-19T10:13:37.595Z,45.67
2019-02-19T10:16:42.446Z,44.77
2019-02-19T10:19:47.144Z,45.70
2019-02-19T10:22:51.960Z,44.47
2019-02-19T10:25:56.714Z,44.40
2019-02-19T10:29:01.537Z,44.80
2019-02-19T10:32:06.386Z,45.13
2019-02-19T10:35:11.925Z,42.80
2019-02-19T10:38:16.766Z,42.13
2019-02-19T10:41:21.570Z,42.80
2019-02-19T10:44:26.286Z,41.93
2019-02-19T10:47:31.233Z,65.73
2019-02-19T10:50:38.317Z,52.60
2019-02-19T10:53:42.943Z,54.13
2019-02-19T10:56:47.756Z,53.50
2019-02-19T10:59:52.540Z,55.17
2019-02-19T11:02:57.220Z,53.67
2019-02-19T11:06:02.161Z,54.13
2019-02-19T11:09:07.389Z,52.83
2019-02-19T11:12:12.223Z,53.63
2019-02-19T11:15:17.597Z,52.97
2019-02-19T11:18:28.322Z,52.03
2019-02-19T11:21:29.024Z,51.67
2019-02-19T11:24:33.794Z,52.43
2019-02-19T11:27:38.679Z,51.60
2019-02-19T11:30:43.370Z,52.53
2019-02-19T11:33:48.189Z,50.67
2019-02-19T11:36:52.912Z,50.63
2019-02-19T11:39:57.528Z,51.97
2019-02-19T11:43:02.318Z,49.60
2019-02-19T11:46:07.206Z,48.70
2019-02-19T11:49:11.945Z,48.73
2019-02-19T11:52:16.545Z,48.60
2019-02-19T11:55:21.387Z,48.70
2019-02-19T11:58:26.213Z,49.77
2019-02-19T12:01:30.856Z,46.90
2019-02-19T12:04:35.705Z,49.07
2019-02-19T12:07:40.391Z,47.40
2019-02-19T12:10:44.851Z,47.83
2019-02-19T12:13:49.560Z,47.63
2019-02-19T12:16:54.276Z,46.40
2019-02-19T12:19:59.118Z,46.83
2019-02-19T12:23:03.949Z,46.80
2019-02-19T12:26:08.648Z,45.90
2019-02-19T12:29:13.516Z,44.40
2019-02-19T12:32:18.494Z,44.47
2019-02-19T12:35:23.254Z,44.20
2019-02-19T12:38:28.099Z,45.00
2019-02-19T12:41:32.924Z,43.97
2019-02-19T12:44:37.635Z,44.50
2019-02-19T12:47:42.476Z,42.27
2019-02-19T12:50:47.430Z,42.77
2019-02-19T12:53:52.264Z,41.93
2019-02-19T12:56:57.186Z,42.60
2019-02-19T13:00:02.159Z,41.13
2019-02-19T13:03:06.851Z,41.80
2019-02-19T13:06:11.687Z,41.93
2019-02-19T13:09:16.588Z,40.73
2019-02-19T13:12:21.327Z,40.60
2019-02-19T13:15:26.160Z,39.33
2019-02-19T13:18:30.990Z,41.37
2019-02-19T13:21:35.808Z,38.90
2019-02-19T13:24:40.668Z,38.33
2019-02-19T13:27:45.479Z,39.30
2019-02-19T13:30:50.229Z,39.83
2019-02-19T13:33:55.101Z,38.43
2019-02-19T13:37:01.540Z,37.80
2019-02-19T13:40:06.740Z,39.67
2019-02-19T13:43:11.486Z,37.57
2019-02-19T13:46:16.225Z,38.20
2019-02-19T13:49:21.026Z,36.80
2019-02-19T13:52:43.397Z,36.70
2019-02-19T13:55:50.668Z,35.17
2019-02-19T13:58:56.538Z,37.00
2019-02-19T14:02:01.146Z,36.30
2019-02-19T14:05:06.068Z,36.83
2019-02-19T14:08:14.510Z,34.07
2019-02-19T14:11:17.467Z,33.87
2019-02-19T14:14:47.257Z,31.73
2019-02-19T14:17:52.070Z,32.87
2019-02-19T14:21:16.205Z,33.77
2019-02-19T14:24:51.529Z,34.10
2019-02-19T14:28:14.930Z,32.23
2019-02-19T14:31:50.723Z,32.73
2019-02-19T14:35:23.076Z,32.03
2019-02-19T14:38:45.539Z,31.90
2019-02-19T14:42:02.669Z,31.77
2019-02-19T14:45:25.526Z,31.30
2019-02-19T14:48:53.553Z,32.13
2019-02-19T14:52:22.827Z,30.83
2019-02-19T14:55:45.457Z,29.27
2019-02-19T14:59:24.203Z,30.50
2019-02-19T15:02:47.037Z,29.33
2019-02-19T15:06:10.080Z,29.73
2019-02-19T15:09:39.329Z,29.93
2019-02-19T15:13:02.847Z,20.20
2019-02-19T15:16:32.710Z,18.40
2019-02-19T15:19:55.352Z,17.10
2019-02-19T15:23:12.743Z,15.57
2019-02-19T15:26:36.361Z,15.20
2019-02-19T15:30:01.027Z,14.23
2019-02-19T15:33:19.352Z,14.37
2019-02-19T15:37:00.278Z,15.13
2019-02-19T15:40:26.807Z,15.50
2019-02-19T15:43:36.030Z,16.97
2019-02-19T15:47:01.655Z,16.83
2019-02-19T15:50:34.302Z,17.77
2019-02-19T15:53:57.838Z,18.83
2019-02-19T15:57:30.697Z,17.70
2019-02-19T16:00:43.617Z,18.10
2019-02-19T16:03:54.207Z,18.37
2019-02-19T16:07:05.515Z,22.90
2019-02-19T16:10:21.696Z,27.00
2019-02-19T16:13:48.406Z,25.33
2019-02-19T16:17:00.927Z,28.83
2019-02-19T16:20:24.225Z,30.23
2019-02-19T16:23:47.659Z,32.43
2019-02-19T16:27:23.436Z,34.07
2019-02-19T16:30:47.394Z,32.60
2019-02-19T16:34:13.113Z,31.13
2019-02-19T16:37:36.939Z,33.77
2019-02-19T16:41:01.215Z,31.67
2019-02-19T16:44:24.199Z,27.27
2019-02-19T16:47:47.349Z,27.80
2019-02-19T16:51:27.252Z,27.83
2019-02-19T16:54:48.308Z,30.93
2019-02-19T16:57:59.273Z,33.93
2019-02-19T17:01:18.458Z,38.50
2019-02-19T17:04:51.570Z,38.60
2019-02-19T17:08:15.414Z,40.40
2019-02-19T17:11:43.341Z,32.87
2019-02-19T17:15:03.760Z,28.43
2019-02-19T17:18:26.544Z,25.90
2019-02-19T17:21:53.818Z,27.03
2019-02-19T17:25:21.612Z,29.77
2019-02-19T17:28:45.869Z,30.10
2019-02-19T17:35:25.517Z,28.63
2019-02-19T17:38:48.017Z,26.27
2019-02-19T17:42:07.129Z,26.33
2019-02-19T17:45:30.717Z,26.00
2019-02-19T17:48:57.401Z,27.90
2019-02-19T17:52:17.486Z,25.03
2019-02-19T17:55:40.195Z,26.00
2019-02-19T17:58:57.634Z,27.53
2019-02-19T18:02:19.656Z,28.00
2019-02-19T18:05:43.828Z,28.37
2019-02-19T18:09:10.773Z,30.00
2019-02-19T18:12:33.250Z,31.47
2019-02-19T18:16:01.052Z,35.17
2019-02-19T18:19:06.104Z,35.93
2019-02-19T18:22:12.830Z,38.80
2019-02-19T18:25:17.396Z,41.70
2019-02-19T18:28:23.231Z,41.20
2019-02-19T18:31:27.965Z,43.20
2019-02-19T18:34:32.797Z,42.97
2019-02-19T18:37:37.633Z,43.60
2019-02-19T18:40:42.458Z,43.40
2019-02-19T18:43:46.976Z,41.13
2019-02-19T18:46:52.833Z,40.90
2019-02-19T18:49:57.569Z,39.43
2019-02-19T18:53:02.407Z,40.90
2019-02-19T18:56:09.157Z,41.10
2019-02-19T18:59:13.698Z,41.27
2019-02-19T19:02:18.438Z,39.60
2019-02-19T19:05:23.385Z,40.03
2019-02-19T19:08:28.289Z,38.87
2019-02-19T19:11:37.519Z,39.27
2019-02-19T19:14:39.477Z,37.50
2019-02-19T19:17:45.732Z,37.90
2019-02-19T19:20:50.583Z,37.60
2019-02-19T19:23:55.395Z,36.47
2019-02-19T19:27:00.220Z,37.20
2019-02-19T19:30:05.155Z,36.43
2019-02-19T19:33:10.016Z,36.23
2019-02-19T19:36:14.832Z,36.40
2019-02-19T19:39:20.019Z,34.53
2019-02-19T19:42:24.913Z,34.27
2019-02-19T19:45:29.632Z,33.50
2019-02-19T19:48:34.536Z,33.13
2019-02-19T19:51:39.298Z,33.20
2019-02-19T19:54:44.059Z,32.33
2019-02-19T19:57:48.978Z,31.30
2019-02-19T20:00:53.891Z,31.37
2019-02-19T20:03:58.814Z,30.70
2019-02-19T20:07:03.481Z,30.73
2019-02-19T20:10:08.889Z,29.00
2019-02-19T20:13:13.623Z,30.70
2019-02-19T20:16:18.357Z,30.27
2019-02-19T20:19:23.073Z,30.50
2019-02-19T20:22:27.620Z,28.10
2019-02-19T20:25:32.536Z,28.80
2019-02-19T20:28:37.357Z,28.00
2019-02-19T20:31:42.281Z,28.83
2019-02-19T20:34:47.135Z,27.50
2019-02-19T20:37:54.018Z,27.00
2019-02-19T20:40:58.330Z,26.80
2019-02-19T20:44:03.256Z,26.73
2019-02-19T20:47:08.093Z,25.87
2019-02-19T20:50:12.892Z,27.13
2019-02-19T20:53:17.649Z,25.87
2019-02-19T20:56:22.583Z,25.40
2019-02-19T20:59:27.516Z,26.47
2019-02-19T21:02:32.335Z,25.73
2019-02-19T21:05:37.267Z,25.67
2019-02-19T21:08:41.892Z,24.73
2019-02-19T21:11:46.839Z,24.50
2019-02-19T21:14:51.766Z,26.43
2019-02-19T21:17:56.602Z,28.43
2019-02-19T21:21:01.556Z,29.07
2019-02-19T21:24:06.368Z,29.30
2019-02-19T21:27:11.172Z,30.23
2019-02-19T21:30:16.022Z,27.70
2019-02-19T21:33:20.845Z,28.47
2019-02-19T21:36:25.684Z,27.10
2019-02-19T21:39:30.610Z,26.70
2019-02-19T21:42:35.451Z,26.43
2019-02-19T21:45:40.279Z,26.77
2019-02-19T21:48:48.102Z,25.70
2019-02-19T21:51:54.187Z,26.30
2019-02-19T21:54:58.235Z,23.83
2019-02-19T21:58:03.277Z,25.40
2019-02-19T22:01:08.237Z,26.67
2019-02-19T22:04:12.920Z,24.47
2019-02-19T22:07:17.554Z,24.27
2019-02-19T22:10:22.401Z,24.70
2019-02-19T22:13:27.376Z,24.73
2019-02-19T22:16:32.145Z,22.70
2019-02-19T22:19:36.884Z,22.77
2019-02-19T22:22:41.722Z,22.80
2019-02-19T22:25:46.439Z,22.60
2019-02-19T22:28:51.255Z,22.70
2019-02-19T22:31:56.101Z,21.73
2019-02-19T22:35:00.944Z,20.43
2019-02-19T22:38:06.767Z,22.47
2019-02-19T22:41:12.987Z,22.20
2019-02-19T22:44:17.757Z,22.77
2019-02-19T22:47:22.313Z,21.10
2019-02-19T22:50:29.673Z,21.63
2019-02-19T22:53:55.962Z,21.27
2019-02-19T22:57:00.934Z,20.10
2019-02-19T23:00:08.471Z,19.90
2019-02-19T23:03:13.152Z,20.40
2019-02-19T23:06:18.106Z,20.10
2019-02-19T23:09:23.042Z,20.03
2019-02-19T23:12:27.855Z,19.37
2019-02-19T23:15:32.702Z,20.13
2019-02-19T23:18:37.517Z,19.53
2019-02-19T23:21:42.150Z,19.40
2019-02-19T23:24:50.267Z,19.80
2019-02-19T23:27:53.436Z,18.53
2019-02-19T23:30:57.877Z,19.10
2019-02-19T23:34:02.897Z,18.97
2019-02-19T23:37:13.695Z,18.43
2019-02-19T23:40:18.554Z,18.07
2019-02-19T23:43:23.320Z,18.80
2019-02-19T23:46:27.983Z,18.30
2019-02-19T23:49:32.798Z,18.80
2019-02-19T23:52:38.517Z,17.97
2019-02-19T23:55:43.047Z,17.63
2019-02-19T23:58:47.992Z,17.30
